sensor_id;sensor_type;location;lat;lon;timestamp;pressure;altitude;pressure_sealevel;temperature;humidity
23899;BME280;20544;50.018;20.010;2023-03-03T00:01:42;99029.05;;;-1.41;100.00
23899;BME280;20544;50.018;20.010;2023-03-03T00:04:58;99025.41;;;-1.39;100.00
23899;BME280;20544;50.018;20.010;2023-03-03T00:08:14;99014.89;;;-1.37;100.00
23899;BME280;20544;50.018;20.010;2023-03-03T00:11:30;99019.38;;;-1.39;100.00
23899;BME280;20544;50.018;20.010;2023-03-03T00:14:46;99012.69;;;-1.43;100.00
23899;BME280;20544;50.018;20.010;2023-03-03T00:18:05;99016.03;;;-1.41;100.00
23899;BME280;20544;50.018;20.010;2023-03-03T00:24:50;99023.35;;;-1.61;100.00
23899;BME280;20544;50.018;20.010;2023-03-03T00:28:15;99015.36;;;-1.58;100.00
23899;BME280;20544;50.018;20.010;2023-03-03T00:31:36;99015.08;;;-1.53;100.00
23899;BME280;20544;50.018;20.010;2023-03-03T00:34:53;99014.83;;;-1.63;100.00
23899;BME280;20544;50.018;20.010;2023-03-03T00:38:11;99019.78;;;-1.73;100.00
23899;BME280;20544;50.018;20.010;2023-03-03T00:41:29;99004.28;;;-1.74;100.00
23899;BME280;20544;50.018;20.010;2023-03-03T00:44:47;98998.13;;;-1.73;100.00
23899;BME280;20544;50.018;20.010;2023-03-03T00:48:20;98995.73;;;-1.76;100.00
23899;BME280;20544;50.018;20.010;2023-03-03T00:51:41;99000.50;;;-1.83;100.00
23899;BME280;20544;50.018;20.010;2023-03-03T00:54:56;98995.20;;;-1.82;100.00
23899;BME280;20544;50.018;20.010;2023-03-03T00:58:13;98989.64;;;-1.90;100.00
23899;BME280;20544;50.018;20.010;2023-03-03T01:01:29;98984.69;;;-1.80;100.00
23899;BME280;20544;50.018;20.010;2023-03-03T01:04:49;98984.15;;;-1.85;100.00
23899;BME280;20544;50.018;20.010;2023-03-03T01:08:08;98984.48;;;-1.77;100.00
23899;BME280;20544;50.018;20.010;2023-03-03T01:11:26;98975.70;;;-1.89;100.00
23899;BME280;20544;50.018;20.010;2023-03-03T01:14:42;98973.53;;;-1.82;100.00
23899;BME280;20544;50.018;20.010;2023-03-03T01:18:00;98978.73;;;-1.82;100.00
23899;BME280;20544;50.018;20.010;2023-03-03T01:24:32;98966.13;;;-1.88;100.00
23899;BME280;20544;50.018;20.010;2023-03-03T01:27:49;98977.27;;;-1.86;100.00
23899;BME280;20544;50.018;20.010;2023-03-03T01:31:06;98979.23;;;-1.90;100.00
23899;BME280;20544;50.018;20.010;2023-03-03T01:34:22;98982.97;;;-1.94;100.00
23899;BME280;20544;50.018;20.010;2023-03-03T01:37:39;98969.11;;;-1.95;100.00
23899;BME280;20544;50.018;20.010;2023-03-03T01:40:56;98971.77;;;-2.09;100.00
23899;BME280;20544;50.018;20.010;2023-03-03T01:44:15;98977.46;;;-2.17;100.00
23899;BME280;20544;50.018;20.010;2023-03-03T01:47:33;98978.72;;;-2.09;100.00
23899;BME280;20544;50.018;20.010;2023-03-03T01:50:53;98972.98;;;-2.15;100.00
23899;BME280;20544;50.018;20.010;2023-03-03T01:54:13;98972.26;;;-2.17;100.00
23899;BME280;20544;50.018;20.010;2023-03-03T01:57:34;98967.98;;;-2.18;100.00
23899;BME280;20544;50.018;20.010;2023-03-03T02:00:56;98977.08;;;-2.10;100.00
23899;BME280;20544;50.018;20.010;2023-03-03T02:04:13;98974.38;;;-2.09;100.00
23899;BME280;20544;50.018;20.010;2023-03-03T02:07:31;98969.09;;;-2.22;100.00
23899;BME280;20544;50.018;20.010;2023-03-03T02:10:49;98966.16;;;-2.30;100.00
23899;BME280;20544;50.018;20.010;2023-03-03T02:14:05;98965.77;;;-2.24;100.00
23899;BME280;20544;50.018;20.010;2023-03-03T02:17:22;98974.67;;;-2.28;100.00
23899;BME280;20544;50.018;20.010;2023-03-03T02:20:45;98971.73;;;-2.36;100.00
23899;BME280;20544;50.018;20.010;2023-03-03T02:24:09;98976.00;;;-2.35;100.00
23899;BME280;20544;50.018;20.010;2023-03-03T02:27:30;98971.45;;;-2.32;100.00
23899;BME280;20544;50.018;20.010;2023-03-03T02:30:47;98975.08;;;-2.34;100.00
23899;BME280;20544;50.018;20.010;2023-03-03T02:34:05;98968.20;;;-2.35;100.00
23899;BME280;20544;50.018;20.010;2023-03-03T02:37:21;98966.25;;;-2.32;100.00
23899;BME280;20544;50.018;20.010;2023-03-03T02:40:41;98966.88;;;-2.28;100.00
23899;BME280;20544;50.018;20.010;2023-03-03T02:44:03;98963.01;;;-2.35;100.00
23899;BME280;20544;50.018;20.010;2023-03-03T02:47:22;98968.38;;;-2.24;100.00
23899;BME280;20544;50.018;20.010;2023-03-03T02:50:39;98967.23;;;-2.20;100.00
23899;BME280;20544;50.018;20.010;2023-03-03T02:57:10;98965.81;;;-2.53;100.00
23899;BME280;20544;50.018;20.010;2023-03-03T03:00:28;98961.72;;;-2.57;100.00
23899;BME280;20544;50.018;20.010;2023-03-03T03:03:45;98963.02;;;-2.50;100.00
23899;BME280;20544;50.018;20.010;2023-03-03T03:10:17;98964.69;;;-2.49;100.00
23899;BME280;20544;50.018;20.010;2023-03-03T03:13:34;98967.66;;;-2.40;100.00
23899;BME280;20544;50.018;20.010;2023-03-03T03:16:51;98971.19;;;-2.41;100.00
23899;BME280;20544;50.018;20.010;2023-03-03T03:20:09;98966.36;;;-2.48;100.00
23899;BME280;20544;50.018;20.010;2023-03-03T03:23:26;98963.77;;;-2.48;100.00
23899;BME280;20544;50.018;20.010;2023-03-03T03:26:43;98965.81;;;-2.53;100.00
23899;BME280;20544;50.018;20.010;2023-03-03T03:29:59;98957.82;;;-2.50;100.00
23899;BME280;20544;50.018;20.010;2023-03-03T03:33:15;98956.08;;;-2.49;100.00
23899;BME280;20544;50.018;20.010;2023-03-03T03:36:32;98951.05;;;-2.52;100.00
23899;BME280;20544;50.018;20.010;2023-03-03T03:39:49;98959.49;;;-2.49;100.00
23899;BME280;20544;50.018;20.010;2023-03-03T03:43:06;98958.95;;;-2.54;100.00
23899;BME280;20544;50.018;20.010;2023-03-03T03:46:23;98953.92;;;-2.57;100.00
23899;BME280;20544;50.018;20.010;2023-03-03T03:49:40;98954.95;;;-2.60;100.00
23899;BME280;20544;50.018;20.010;2023-03-03T03:56:11;98954.77;;;-2.71;100.00
23899;BME280;20544;50.018;20.010;2023-03-03T03:59:29;98956.34;;;-2.68;100.00
23899;BME280;20544;50.018;20.010;2023-03-03T04:02:46;98955.52;;;-2.69;100.00
23899;BME280;20544;50.018;20.010;2023-03-03T04:06:04;98955.63;;;-2.70;100.00
23899;BME280;20544;50.018;20.010;2023-03-03T04:09:21;98948.27;;;-2.78;100.00
23899;BME280;20544;50.018;20.010;2023-03-03T04:12:37;98945.50;;;-2.75;100.00
23899;BME280;20544;50.018;20.010;2023-03-03T04:15:54;98953.95;;;-2.71;100.00
23899;BME280;20544;50.018;20.010;2023-03-03T04:19:10;98954.97;;;-2.74;100.00
23899;BME280;20544;50.018;20.010;2023-03-03T04:22:31;98945.02;;;-2.82;100.00
23899;BME280;20544;50.018;20.010;2023-03-03T04:25:49;98943.45;;;-2.84;100.00
23899;BME280;20544;50.018;20.010;2023-03-03T04:29:05;98948.47;;;-2.81;100.00
23899;BME280;20544;50.018;20.010;2023-03-03T04:32:22;98951.06;;;-2.81;100.00
23899;BME280;20544;50.018;20.010;2023-03-03T04:35:38;98948.37;;;-2.80;100.00
23899;BME280;20544;50.018;20.010;2023-03-03T04:38:55;98958.28;;;-2.72;100.00
23899;BME280;20544;50.018;20.010;2023-03-03T04:42:12;98953.39;;;-2.77;100.00
23899;BME280;20544;50.018;20.010;2023-03-03T04:45:29;98955.99;;;-2.77;100.00
23899;BME280;20544;50.018;20.010;2023-03-03T04:48:46;98953.18;;;-2.88;100.00
23899;BME280;20544;50.018;20.010;2023-03-03T04:52:03;98957.09;;;-2.95;100.00
23899;BME280;20544;50.018;20.010;2023-03-03T04:55:19;98956.44;;;-2.99;100.00
23899;BME280;20544;50.018;20.010;2023-03-03T04:58:36;98963.20;;;-2.96;100.00
23899;BME280;20544;50.018;20.010;2023-03-03T05:01:52;98957.36;;;-3.00;100.00
23899;BME280;20544;50.018;20.010;2023-03-03T05:05:09;98962.55;;;-3.00;100.00
23899;BME280;20544;50.018;20.010;2023-03-03T05:08:25;98968.66;;;-3.01;100.00
23899;BME280;20544;50.018;20.010;2023-03-03T05:11:41;98967.56;;;-2.82;100.00
23899;BME280;20544;50.018;20.010;2023-03-03T05:14:57;98969.97;;;-2.79;100.00
23899;BME280;20544;50.018;20.010;2023-03-03T05:18:13;98969.34;;;-2.83;100.00
23899;BME280;20544;50.018;20.010;2023-03-03T05:21:29;98965.80;;;-2.96;100.00
23899;BME280;20544;50.018;20.010;2023-03-03T05:24:47;98966.82;;;-2.99;100.00
23899;BME280;20544;50.018;20.010;2023-03-03T05:28:03;98972.11;;;-3.00;100.00
23899;BME280;20544;50.018;20.010;2023-03-03T05:31:20;98964.23;;;-2.99;100.00
23899;BME280;20544;50.018;20.010;2023-03-03T05:34:36;98963.67;;;-3.04;100.00
23899;BME280;20544;50.018;20.010;2023-03-03T05:37:52;98970.23;;;-2.98;100.00
23899;BME280;20544;50.018;20.010;2023-03-03T05:41:12;98983.71;;;-2.91;100.00
23899;BME280;20544;50.018;20.010;2023-03-03T05:44:29;98985.65;;;-2.95;100.00
23899;BME280;20544;50.018;20.010;2023-03-03T05:47:45;98991.95;;;-2.85;100.00
23899;BME280;20544;50.018;20.010;2023-03-03T05:51:01;98991.33;;;-2.74;100.00
23899;BME280;20544;50.018;20.010;2023-03-03T05:54:17;98994.58;;;-2.70;100.00
23899;BME280;20544;50.018;20.010;2023-03-03T05:57:34;99003.48;;;-2.60;100.00
23899;BME280;20544;50.018;20.010;2023-03-03T06:00:50;99004.41;;;-2.47;100.00
23899;BME280;20544;50.018;20.010;2023-03-03T06:04:06;99003.28;;;-2.42;100.00
23899;BME280;20544;50.018;20.010;2023-03-03T06:07:22;99005.88;;;-2.42;100.00
23899;BME280;20544;50.018;20.010;2023-03-03T06:10:39;99003.02;;;-2.38;100.00
23899;BME280;20544;50.018;20.010;2023-03-03T06:13:55;99002.33;;;-2.27;100.00
23899;BME280;20544;50.018;20.010;2023-03-03T06:17:12;99014.19;;;-2.08;100.00
23899;BME280;20544;50.018;20.010;2023-03-03T06:20:28;99015.09;;;-1.95;100.00
23899;BME280;20544;50.018;20.010;2023-03-03T06:23:44;99026.19;;;-1.79;100.00
23899;BME280;20544;50.018;20.010;2023-03-03T06:27:01;99030.91;;;-1.71;100.00
23899;BME280;20544;50.018;20.010;2023-03-03T06:30:18;99037.50;;;-1.65;100.00
23899;BME280;20544;50.018;20.010;2023-03-03T06:33:36;99048.27;;;-1.57;100.00
23899;BME280;20544;50.018;20.010;2023-03-03T06:36:52;99038.49;;;-1.53;100.00
23899;BME280;20544;50.018;20.010;2023-03-03T06:40:11;99035.58;;;-1.49;100.00
23899;BME280;20544;50.018;20.010;2023-03-03T06:43:28;99041.13;;;-1.40;100.00
23899;BME280;20544;50.018;20.010;2023-03-03T06:46:44;99038.23;;;-1.36;100.00
23899;BME280;20544;50.018;20.010;2023-03-03T06:50:01;99045.83;;;-1.33;100.00
23899;BME280;20544;50.018;20.010;2023-03-03T06:53:19;99035.31;;;-1.31;100.00
23899;BME280;20544;50.018;20.010;2023-03-03T06:56:37;99034.20;;;-1.27;100.00
23899;BME280;20544;50.018;20.010;2023-03-03T06:59:56;99025.75;;;-1.31;100.00
23899;BME280;20544;50.018;20.010;2023-03-03T07:03:18;99033.23;;;-1.26;100.00
23899;BME280;20544;50.018;20.010;2023-03-03T07:12:21;99025.77;;;-1.18;100.00
23899;BME280;20544;50.018;20.010;2023-03-03T07:15:39;99019.42;;;-1.14;100.00
23899;BME280;20544;50.018;20.010;2023-03-03T07:18:58;99016.41;;;-1.07;100.00
23899;BME280;20544;50.018;20.010;2023-03-03T07:22:18;99007.48;;;-1.03;100.00
23899;BME280;20544;50.018;20.010;2023-03-03T07:25:36;99018.01;;;-0.79;100.00
23899;BME280;20544;50.018;20.010;2023-03-03T07:28:57;99016.36;;;-0.67;100.00
23899;BME280;20544;50.018;20.010;2023-03-03T07:32:26;99024.28;;;-0.56;100.00
23899;BME280;20544;50.018;20.010;2023-03-03T07:35:45;99025.00;;;-0.41;100.00
23899;BME280;20544;50.018;20.010;2023-03-03T07:39:13;99014.85;;;-0.33;100.00
23899;BME280;20544;50.018;20.010;2023-03-03T07:42:33;99003.69;;;-0.22;100.00
23899;BME280;20544;50.018;20.010;2023-03-03T07:46:13;99000.45;;;-0.12;100.00
23899;BME280;20544;50.018;20.010;2023-03-03T07:49:34;98997.74;;;0.13;100.00
23899;BME280;20544;50.018;20.010;2023-03-03T07:52:53;98993.31;;;0.27;100.00
23899;BME280;20544;50.018;20.010;2023-03-03T07:56:21;98994.92;;;0.41;100.00
23899;BME280;20544;50.018;20.010;2023-03-03T07:59:45;99001.20;;;0.62;100.00
23899;BME280;20544;50.018;20.010;2023-03-03T08:03:04;98995.80;;;0.88;100.00
23899;BME280;20544;50.018;20.010;2023-03-03T08:06:40;99009.97;;;1.08;100.00
23899;BME280;20544;50.018;20.010;2023-03-03T08:10:40;99013.09;;;1.13;100.00
23899;BME280;20544;50.018;20.010;2023-03-03T08:14:00;98989.20;;;1.07;100.00
23899;BME280;20544;50.018;20.010;2023-03-03T08:17:20;98990.27;;;1.04;100.00
23899;BME280;20544;50.018;20.010;2023-03-03T08:20:50;98982.44;;;1.16;100.00
23899;BME280;20544;50.018;20.010;2023-03-03T08:24:08;98983.52;;;1.24;100.00
23899;BME280;20544;50.018;20.010;2023-03-03T08:27:24;99000.52;;;1.30;100.00
23899;BME280;20544;50.018;20.010;2023-03-03T08:30:41;99010.17;;;1.41;100.00
23899;BME280;20544;50.018;20.010;2023-03-03T08:33:58;99027.15;;;1.47;100.00
23899;BME280;20544;50.018;20.010;2023-03-03T08:40:31;99030.24;;;1.52;100.00
23899;BME280;20544;50.018;20.010;2023-03-03T08:43:48;99016.47;;;1.61;100.00
23899;BME280;20544;50.018;20.010;2023-03-03T08:47:04;99013.00;;;1.72;100.00
23899;BME280;20544;50.018;20.010;2023-03-03T08:50:21;99013.98;;;1.71;100.00
23899;BME280;20544;50.018;20.010;2023-03-03T08:53:38;99013.14;;;1.59;100.00
23899;BME280;20544;50.018;20.010;2023-03-03T08:56:54;99006.35;;;1.79;100.00
23899;BME280;20544;50.018;20.010;2023-03-03T09:00:14;99020.51;;;1.65;100.00
23899;BME280;20544;50.018;20.010;2023-03-03T09:03:31;99022.89;;;1.80;100.00
23899;BME280;20544;50.018;20.010;2023-03-03T09:06:48;99030.72;;;1.68;100.00
23899;BME280;20544;50.018;20.010;2023-03-03T09:13:37;99043.57;;;1.60;100.00
23899;BME280;20544;50.018;20.010;2023-03-03T09:16:54;99037.14;;;1.64;100.00
23899;BME280;20544;50.018;20.010;2023-03-03T09:20:26;99032.39;;;1.69;100.00
23899;BME280;20544;50.018;20.010;2023-03-03T09:23:53;99034.05;;;1.70;100.00
23899;BME280;20544;50.018;20.010;2023-03-03T09:27:17;99025.25;;;1.83;100.00
23899;BME280;20544;50.018;20.010;2023-03-03T09:30:39;99020.61;;;1.98;100.00
23899;BME280;20544;50.018;20.010;2023-03-03T09:33:59;99023.46;;;2.06;100.00
23899;BME280;20544;50.018;20.010;2023-03-03T09:40:43;99016.02;;;2.34;100.00
23899;BME280;20544;50.018;20.010;2023-03-03T09:55:44;99032.27;;;2.81;100.00
23899;BME280;20544;50.018;20.010;2023-03-03T09:59:12;99021.48;;;2.74;100.00
23899;BME280;20544;50.018;20.010;2023-03-03T10:02:51;99027.40;;;2.77;100.00
23899;BME280;20544;50.018;20.010;2023-03-03T10:06:17;99030.95;;;2.87;100.00
23899;BME280;20544;50.018;20.010;2023-03-03T10:13:00;99032.87;;;3.06;100.00
23899;BME280;20544;50.018;20.010;2023-03-03T10:16:56;99028.00;;;3.01;100.00
23899;BME280;20544;50.018;20.010;2023-03-03T10:20:37;99033.82;;;3.05;100.00
23899;BME280;20544;50.018;20.010;2023-03-03T10:27:27;99037.73;;;3.32;100.00
23899;BME280;20544;50.018;20.010;2023-03-03T10:30:53;99047.27;;;3.33;100.00
23899;BME280;20544;50.018;20.010;2023-03-03T10:34:25;99041.81;;;3.46;100.00
23899;BME280;20544;50.018;20.010;2023-03-03T10:41:10;99049.21;;;3.62;100.00
23899;BME280;20544;50.018;20.010;2023-03-03T10:44:55;99039.90;;;3.48;100.00
23899;BME280;20544;50.018;20.010;2023-03-03T10:52:29;99035.38;;;3.60;100.00
23899;BME280;20544;50.018;20.010;2023-03-03T10:55:53;99044.64;;;3.64;100.00
23899;BME280;20544;50.018;20.010;2023-03-03T10:59:30;99045.93;;;3.69;100.00
23899;BME280;20544;50.018;20.010;2023-03-03T11:02:58;99039.97;;;3.67;100.00
23899;BME280;20544;50.018;20.010;2023-03-03T11:06:35;99048.17;;;3.74;100.00
23899;BME280;20544;50.018;20.010;2023-03-03T11:13:15;99053.66;;;3.71;100.00
23899;BME280;20544;50.018;20.010;2023-03-03T11:16:43;99055.61;;;3.69;100.00
23899;BME280;20544;50.018;20.010;2023-03-03T11:20:07;99059.46;;;3.22;100.00
23899;BME280;20544;50.018;20.010;2023-03-03T11:30:42;99060.62;;;3.30;100.00
23899;BME280;20544;50.018;20.010;2023-03-03T11:34:13;99055.65;;;3.27;100.00
23899;BME280;20544;50.018;20.010;2023-03-03T11:40:52;99050.84;;;3.11;100.00
23899;BME280;20544;50.018;20.010;2023-03-03T11:44:22;99046.05;;;3.16;100.00
23899;BME280;20544;50.018;20.010;2023-03-03T11:47:44;99036.37;;;2.95;100.00
23899;BME280;20544;50.018;20.010;2023-03-03T11:51:04;99042.06;;;3.00;100.00
23899;BME280;20544;50.018;20.010;2023-03-03T11:57:41;99047.30;;;2.79;100.00
23899;BME280;20544;50.018;20.010;2023-03-03T12:01:01;99046.77;;;2.85;100.00
23899;BME280;20544;50.018;20.010;2023-03-03T12:04:33;99040.45;;;2.55;100.00
23899;BME280;20544;50.018;20.010;2023-03-03T12:11:23;99038.14;;;2.73;100.00
23899;BME280;20544;50.018;20.010;2023-03-03T12:14:55;99040.31;;;2.68;100.00
23899;BME280;20544;50.018;20.010;2023-03-03T12:18:44;99036.73;;;2.69;100.00
23899;BME280;20544;50.018;20.010;2023-03-03T12:22:14;99029.47;;;2.73;100.00
23899;BME280;20544;50.018;20.010;2023-03-03T12:25:53;99043.20;;;2.54;100.00
23899;BME280;20544;50.018;20.010;2023-03-03T12:29:17;99037.60;;;2.58;100.00
23899;BME280;20544;50.018;20.010;2023-03-03T12:32:47;99046.55;;;2.56;100.00
23899;BME280;20544;50.018;20.010;2023-03-03T12:36:31;99033.14;;;2.70;100.00
23899;BME280;20544;50.018;20.010;2023-03-03T12:40:05;99034.13;;;2.69;100.00
23899;BME280;20544;50.018;20.010;2023-03-03T12:43:34;99040.18;;;2.70;100.00
23899;BME280;20544;50.018;20.010;2023-03-03T12:47:08;99031.23;;;2.72;100.00
23899;BME280;20544;50.018;20.010;2023-03-03T12:50:34;99031.09;;;2.41;100.00
23899;BME280;20544;50.018;20.010;2023-03-03T12:57:44;99027.40;;;2.44;100.00
23899;BME280;20544;50.018;20.010;2023-03-03T13:01:08;99018.30;;;2.27;100.00
23899;BME280;20544;50.018;20.010;2023-03-03T13:04:36;99017.84;;;2.22;100.00
23899;BME280;20544;50.018;20.010;2023-03-03T13:11:22;99003.58;;;2.15;100.00
23899;BME280;20544;50.018;20.010;2023-03-03T13:14:48;99014.76;;;2.05;100.00
23899;BME280;20544;50.018;20.010;2023-03-03T13:18:23;99013.81;;;2.06;100.00
23899;BME280;20544;50.018;20.010;2023-03-03T13:21:45;99014.42;;;1.99;100.00
23899;BME280;20544;50.018;20.010;2023-03-03T13:28:30;99018.34;;;1.93;100.00
23899;BME280;20544;50.018;20.010;2023-03-03T13:31:50;99021.56;;;1.85;100.00
23899;BME280;20544;50.018;20.010;2023-03-03T13:35:14;99020.97;;;1.82;100.00
23899;BME280;20544;50.018;20.010;2023-03-03T13:38:36;99024.79;;;1.66;100.00
23899;BME280;20544;50.018;20.010;2023-03-03T13:41:58;99026.46;;;1.67;100.00
23899;BME280;20544;50.018;20.010;2023-03-03T13:45:19;99028.48;;;1.64;100.00
23899;BME280;20544;50.018;20.010;2023-03-03T13:48:44;99027.16;;;1.69;100.00
23899;BME280;20544;50.018;20.010;2023-03-03T13:52:32;99022.52;;;1.50;100.00
23899;BME280;20544;50.018;20.010;2023-03-03T13:58:59;99021.57;;;1.40;100.00
23899;BME280;20544;50.018;20.010;2023-03-03T14:02:33;99022.03;;;1.34;100.00
23899;BME280;20544;50.018;20.010;2023-03-03T14:06:04;99019.55;;;1.32;100.00
23899;BME280;20544;50.018;20.010;2023-03-03T14:12:31;99026.80;;;1.40;100.00
23899;BME280;20544;50.018;20.010;2023-03-03T14:15:57;99022.64;;;1.37;100.00
23899;BME280;20544;50.018;20.010;2023-03-03T14:19:20;99013.59;;;1.30;100.00
23899;BME280;20544;50.018;20.010;2023-03-03T14:22:50;99016.08;;;1.32;100.00
23899;BME280;20544;50.018;20.010;2023-03-03T14:26:10;99016.94;;;1.32;100.00
23899;BME280;20544;50.018;20.010;2023-03-03T14:29:33;99011.11;;;1.40;100.00
23899;BME280;20544;50.018;20.010;2023-03-03T14:33:00;99013.25;;;1.35;100.00
23899;BME280;20544;50.018;20.010;2023-03-03T14:36:24;99011.45;;;1.35;100.00
23899;BME280;20544;50.018;20.010;2023-03-03T14:39:44;99018.58;;;1.33;100.00
23899;BME280;20544;50.018;20.010;2023-03-03T14:43:20;99016.22;;;1.41;100.00
23899;BME280;20544;50.018;20.010;2023-03-03T14:46:42;99021.45;;;1.41;100.00
23899;BME280;20544;50.018;20.010;2023-03-03T14:49:59;99025.13;;;1.39;100.00
23899;BME280;20544;50.018;20.010;2023-03-03T14:53:32;99015.34;;;1.18;100.00
23899;BME280;20544;50.018;20.010;2023-03-03T14:57:04;99017.27;;;1.27;100.00
23899;BME280;20544;50.018;20.010;2023-03-03T15:00:32;99014.06;;;1.24;100.00
23899;BME280;20544;50.018;20.010;2023-03-03T15:03:57;99016.89;;;1.21;100.00
23899;BME280;20544;50.018;20.010;2023-03-03T15:07:25;99013.94;;;1.25;100.00
23899;BME280;20544;50.018;20.010;2023-03-03T15:10:44;99011.06;;;1.17;100.00
23899;BME280;20544;50.018;20.010;2023-03-03T15:14:14;99013.92;;;1.14;100.00
23899;BME280;20544;50.018;20.010;2023-03-03T15:17:35;99018.69;;;1.20;100.00
23899;BME280;20544;50.018;20.010;2023-03-03T15:20:59;99009.52;;;1.15;100.00
23899;BME280;20544;50.018;20.010;2023-03-03T15:24:19;99018.08;;;1.17;100.00
23899;BME280;20544;50.018;20.010;2023-03-03T15:27:41;99016.39;;;1.04;100.00
23899;BME280;20544;50.018;20.010;2023-03-03T15:31:02;99019.61;;;1.08;100.00
23899;BME280;20544;50.018;20.010;2023-03-03T15:34:35;99013.78;;;1.04;100.00
23899;BME280;20544;50.018;20.010;2023-03-03T15:37:58;99007.36;;;1.08;100.00
23899;BME280;20544;50.018;20.010;2023-03-03T15:41:24;98998.58;;;1.09;100.00
23899;BME280;20544;50.018;20.010;2023-03-03T15:44:53;98993.00;;;1.03;100.00
23899;BME280;20544;50.018;20.010;2023-03-03T15:48:34;98990.51;;;1.01;100.00
23899;BME280;20544;50.018;20.010;2023-03-03T15:52:04;99002.11;;;0.97;100.00
23899;BME280;20544;50.018;20.010;2023-03-03T15:59:33;99011.74;;;0.96;100.00
23899;BME280;20544;50.018;20.010;2023-03-03T16:03:04;99011.27;;;0.91;100.00
23899;BME280;20544;50.018;20.010;2023-03-03T16:06:32;99020.31;;;0.99;100.00
23899;BME280;20544;50.018;20.010;2023-03-03T16:09:55;99019.25;;;1.01;100.00
23899;BME280;20544;50.018;20.010;2023-03-03T16:13:28;99028.69;;;0.91;100.00
23899;BME280;20544;50.018;20.010;2023-03-03T16:17:00;99028.72;;;1.02;100.00
23899;BME280;20544;50.018;20.010;2023-03-03T16:20:22;99029.57;;;1.03;100.00
23899;BME280;20544;50.018;20.010;2023-03-03T16:26:58;99027.17;;;1.00;100.00
23899;BME280;20544;50.018;20.010;2023-03-03T16:30:26;99027.05;;;0.90;100.00
23899;BME280;20544;50.018;20.010;2023-03-03T16:33:48;99037.98;;;0.95;100.00
23899;BME280;20544;50.018;20.010;2023-03-03T16:37:12;99030.97;;;0.95;100.00
23899;BME280;20544;50.018;20.010;2023-03-03T16:43:53;99043.36;;;1.05;100.00
23899;BME280;20544;50.018;20.010;2023-03-03T16:47:21;99046.31;;;1.00;100.00
23899;BME280;20544;50.018;20.010;2023-03-03T16:50:45;99051.53;;;1.00;100.00
23899;BME280;20544;50.018;20.010;2023-03-03T16:57:28;99045.38;;;1.01;100.00
23899;BME280;20544;50.018;20.010;2023-03-03T17:00:49;99053.66;;;0.95;100.00
23899;BME280;20544;50.018;20.010;2023-03-03T17:04:12;99049.46;;;0.81;100.00
23899;BME280;20544;50.018;20.010;2023-03-03T17:07:41;99051.59;;;0.87;100.00
23899;BME280;20544;50.018;20.010;2023-03-03T17:11:02;99056.48;;;0.92;100.00
23899;BME280;20544;50.018;20.010;2023-03-03T17:14:34;99055.78;;;0.90;100.00
23899;BME280;20544;50.018;20.010;2023-03-03T17:18:00;99053.42;;;0.98;100.00
23899;BME280;20544;50.018;20.010;2023-03-03T17:21:27;99051.99;;;0.94;100.00
23899;BME280;20544;50.018;20.010;2023-03-03T17:24:54;99052.32;;;0.89;100.00
23899;BME280;20544;50.018;20.010;2023-03-03T17:28:26;99044.00;;;0.84;100.00
23899;BME280;20544;50.018;20.010;2023-03-03T17:31:50;99044.88;;;0.96;100.00
23899;BME280;20544;50.018;20.010;2023-03-03T17:35:16;99046.43;;;0.99;100.00
23899;BME280;20544;50.018;20.010;2023-03-03T17:38:52;99039.99;;;0.91;100.00
23899;BME280;20544;50.018;20.010;2023-03-03T17:42:14;99042.61;;;0.91;100.00
23899;BME280;20544;50.018;20.010;2023-03-03T17:45:37;99042.27;;;0.96;100.00
23899;BME280;20544;50.018;20.010;2023-03-03T17:49:13;99044.64;;;0.99;100.00
23899;BME280;20544;50.018;20.010;2023-03-03T18:00:12;99041.05;;;0.89;100.00
23899;BME280;20544;50.018;20.010;2023-03-03T18:03:56;99055.33;;;0.96;100.00
23899;BME280;20544;50.018;20.010;2023-03-03T18:18:22;99048.28;;;0.85;100.00
23899;BME280;20544;50.018;20.010;2023-03-03T18:21:50;99049.70;;;0.89;100.00
23899;BME280;20544;50.018;20.010;2023-03-03T18:28:44;99056.94;;;0.86;100.00
23899;BME280;20544;50.018;20.010;2023-03-03T18:32:19;99051.95;;;0.83;100.00
23899;BME280;20544;50.018;20.010;2023-03-03T18:35:40;99063.09;;;0.85;100.00
23899;BME280;20544;50.018;20.010;2023-03-03T18:42:38;99051.02;;;0.84;100.00
23899;BME280;20544;50.018;20.010;2023-03-03T18:45:57;99051.38;;;0.90;100.00
23899;BME280;20544;50.018;20.010;2023-03-03T18:49:13;99052.16;;;0.79;100.00
23899;BME280;20544;50.018;20.010;2023-03-03T18:52:31;99054.89;;;0.78;100.00
23899;BME280;20544;50.018;20.010;2023-03-03T18:55:49;99044.33;;;0.79;100.00
23899;BME280;20544;50.018;20.010;2023-03-03T18:59:08;99047.42;;;0.85;100.00
23899;BME280;20544;50.018;20.010;2023-03-03T19:02:32;99036.77;;;0.88;100.00
23899;BME280;20544;50.018;20.010;2023-03-03T19:05:51;99034.73;;;0.80;100.00
23899;BME280;20544;50.018;20.010;2023-03-03T19:09:10;99036.69;;;0.65;100.00
23899;BME280;20544;50.018;20.010;2023-03-03T19:14:35;99025.80;;;0.71;100.00
23899;BME280;20544;50.018;20.010;2023-03-03T19:17:51;99028.86;;;0.65;100.00
23899;BME280;20544;50.018;20.010;2023-03-03T19:21:19;99016.95;;;0.61;100.00
23899;BME280;20544;50.018;20.010;2023-03-03T19:24:39;99013.15;;;0.54;100.00
23899;BME280;20544;50.018;20.010;2023-03-03T19:28:08;99014.41;;;0.48;100.00
23899;BME280;20544;50.018;20.010;2023-03-03T19:31:36;99020.13;;;0.53;100.00
23899;BME280;20544;50.018;20.010;2023-03-03T19:34:59;99020.98;;;0.54;100.00
23899;BME280;20544;50.018;20.010;2023-03-03T19:38:25;99030.86;;;0.61;100.00
23899;BME280;20544;50.018;20.010;2023-03-03T19:41:56;99035.84;;;0.64;100.00
23899;BME280;20544;50.018;20.010;2023-03-03T19:45:26;99031.02;;;0.71;100.00
23899;BME280;20544;50.018;20.010;2023-03-03T19:48:49;99025.52;;;0.63;100.00